createdAt,value
2022-10-26T00:04:36.544Z,14.91
2022-10-26T00:09:39.622Z,14.91
2022-10-26T00:14:42.714Z,14.90
2022-10-26T00:19:45.619Z,14.91
2022-10-26T00:24:48.473Z,14.87
2022-10-26T00:29:51.537Z,14.86
2022-10-26T00:34:54.420Z,14.89
2022-10-26T00:39:57.288Z,14.96
2022-10-26T00:45:05.113Z,15.01
2022-10-26T00:50:21.422Z,15.01
2022-10-26T00:55:29.445Z,14.96
2022-10-26T01:00:32.966Z,14.90
2022-10-26T01:05:39.401Z,14.84
2022-10-26T01:10:43.174Z,14.75
2022-10-26T01:16:02.504Z,14.69
2022-10-26T01:21:08.147Z,14.74
2022-10-26T01:26:21.828Z,14.82
2022-10-26T01:31:42.117Z,14.87
2022-10-26T01:36:53.210Z,14.85
2022-10-26T01:42:01.139Z,14.79
2022-10-26T01:47:04.697Z,14.76
2022-10-26T01:52:10.458Z,14.69
2022-10-26T01:57:15.008Z,14.63
2022-10-26T02:02:24.091Z,14.60
2022-10-26T02:07:51.731Z,14.60
2022-10-26T02:13:10.703Z,14.58
2022-10-26T02:18:32.736Z,14.57
2022-10-26T02:23:39.550Z,14.50
2022-10-26T02:28:47.019Z,14.46
2022-10-26T02:33:53.283Z,14.42
2022-10-26T02:38:57.985Z,14.38
2022-10-26T02:44:04.969Z,14.37
2022-10-26T02:49:08.051Z,14.38
2022-10-26T02:54:20.028Z,14.36
2022-10-26T02:59:26.334Z,14.35
2022-10-26T03:04:33.795Z,14.30
2022-10-26T03:09:37.310Z,14.19
2022-10-26T03:14:41.430Z,14.07
2022-10-26T03:19:44.484Z,14.03
2022-10-26T03:24:47.435Z,14.03
2022-10-26T03:29:50.390Z,13.98
2022-10-26T03:34:53.401Z,13.98
2022-10-26T03:39:56.311Z,14.02
2022-10-26T03:44:59.205Z,14.06
2022-10-26T03:50:02.105Z,14.03
2022-10-26T03:55:05.862Z,14.05
2022-10-26T04:00:10.463Z,14.06
2022-10-26T04:05:17.635Z,14.11
2022-10-26T04:10:21.038Z,14.20
2022-10-26T04:15:24.454Z,14.17
2022-10-26T04:20:28.874Z,14.12
2022-10-26T04:25:33.679Z,14.08
2022-10-26T04:30:37.436Z,14.04
2022-10-26T04:35:40.627Z,14.02
2022-10-26T04:40:43.551Z,13.98
2022-10-26T04:45:46.656Z,13.91
2022-10-26T04:50:52.180Z,13.84
2022-10-26T04:55:59.816Z,13.74
2022-10-26T05:01:03.321Z,13.59
2022-10-26T05:06:06.697Z,13.43
2022-10-26T05:11:09.727Z,13.31
2022-10-26T05:16:13.199Z,13.17
2022-10-26T05:21:19.838Z,13.07
2022-10-26T05:26:23.933Z,13.04
2022-10-26T05:31:27.213Z,13.04
2022-10-26T05:36:30.107Z,13.01
2022-10-26T05:41:33.330Z,13.01
2022-10-26T05:46:36.311Z,13.01
2022-10-26T05:51:39.779Z,12.97
2022-10-26T05:56:43.047Z,12.93
2022-10-26T06:02:07.422Z,12.90
2022-10-26T06:07:28.818Z,13.01
2022-10-26T06:12:31.989Z,13.16
2022-10-26T06:18:00.016Z,13.23
2022-10-26T06:23:29.094Z,13.23
2022-10-26T06:28:58.004Z,13.28
2022-10-26T06:34:01.072Z,13.35
2022-10-26T06:39:11.555Z,13.37
2022-10-26T06:44:23.004Z,13.38
2022-10-26T06:49:34.886Z,13.48
2022-10-26T06:54:54.740Z,13.63
2022-10-26T07:00:22.530Z,13.75
2022-10-26T07:05:25.761Z,13.83
2022-10-26T07:10:28.733Z,13.89
2022-10-26T07:15:31.672Z,14.03
2022-10-26T07:20:39.786Z,14.17
2022-10-26T07:25:43.065Z,14.30
2022-10-26T07:30:46.088Z,14.46
2022-10-26T07:35:49.047Z,14.60
2022-10-26T07:40:54.330Z,14.76
2022-10-26T07:45:57.456Z,14.93
2022-10-26T07:51:03.163Z,15.05
2022-10-26T07:56:07.146Z,15.18
2022-10-26T08:01:17.769Z,15.33
2022-10-26T08:06:22.210Z,15.44
2022-10-26T08:11:25.093Z,15.52
2022-10-26T08:16:28.190Z,15.68
2022-10-26T08:21:46.408Z,15.81
2022-10-26T08:26:49.616Z,15.93
2022-10-26T08:31:52.568Z,16.00
2022-10-26T08:36:55.480Z,16.11
2022-10-26T08:42:26.154Z,16.22
2022-10-26T08:47:34.565Z,16.29
2022-10-26T08:52:54.069Z,16.34
2022-10-26T08:57:58.014Z,16.40
2022-10-26T09:03:00.923Z,16.49
2022-10-26T09:08:36.884Z,16.62
2022-10-26T09:13:39.743Z,16.79
2022-10-26T09:19:02.888Z,16.97
2022-10-26T09:24:16.391Z,17.16
2022-10-26T09:29:20.953Z,17.28
2022-10-26T09:34:29.887Z,17.35
2022-10-26T09:39:46.649Z,17.42
2022-10-26T09:45:00.144Z,17.48
2022-10-26T09:50:18.436Z,17.52
2022-10-26T09:55:23.083Z,17.61
2022-10-26T10:00:28.917Z,17.68
2022-10-26T10:11:02.178Z,17.83
2022-10-26T10:16:24.061Z,17.98
2022-10-26T10:21:39.850Z,18.15
2022-10-26T10:27:12.388Z,18.26
2022-10-26T10:32:24.636Z,18.32
2022-10-26T10:37:35.176Z,18.40
2022-10-26T10:42:41.646Z,18.48
2022-10-26T10:48:13.526Z,18.55
2022-10-26T10:53:29.396Z,18.59
2022-10-26T10:58:49.841Z,18.61
2022-10-26T11:04:28.186Z,18.63
2022-10-26T11:09:36.736Z,18.65
2022-10-26T11:14:46.318Z,18.70
2022-10-26T11:19:57.767Z,18.74
2022-10-26T11:25:12.065Z,18.82
2022-10-26T11:30:20.100Z,18.92
2022-10-26T11:35:56.685Z,18.98
2022-10-26T11:41:33.562Z,19.05
2022-10-26T11:46:43.505Z,19.15
2022-10-26T11:52:14.778Z,19.25
2022-10-26T11:57:18.778Z,19.36
2022-10-26T12:02:24.566Z,19.45
2022-10-26T12:07:31.448Z,19.55
2022-10-26T12:12:47.318Z,19.63
2022-10-26T12:17:56.496Z,19.68
2022-10-26T12:22:59.711Z,19.76
2022-10-26T12:28:02.995Z,19.85
2022-10-26T12:33:29.379Z,19.95
2022-10-26T12:38:33.933Z,20.06
2022-10-26T12:43:37.006Z,20.16
2022-10-26T12:48:43.057Z,20.23
2022-10-26T12:54:18.379Z,20.30
2022-10-26T12:59:30.417Z,20.24
2022-10-26T13:04:57.406Z,20.12
2022-10-26T13:10:04.955Z,19.96
2022-10-26T13:15:39.820Z,19.78
2022-10-26T13:20:54.798Z,19.62
2022-10-26T13:26:03.571Z,19.49
2022-10-26T13:31:12.027Z,19.43
2022-10-26T13:36:23.569Z,19.36
2022-10-26T13:41:45.364Z,19.31
2022-10-26T13:46:53.502Z,19.30
2022-10-26T13:52:02.352Z,19.30
2022-10-26T13:57:08.001Z,19.32
2022-10-26T14:02:25.466Z,19.35
2022-10-26T14:07:39.677Z,19.34
2022-10-26T14:12:42.799Z,19.33
2022-10-26T14:17:51.044Z,19.32
2022-10-26T14:22:54.304Z,19.31
2022-10-26T14:27:57.489Z,19.31
2022-10-26T14:33:00.486Z,19.31
2022-10-26T14:38:15.068Z,19.30
2022-10-26T14:43:22.972Z,19.28
2022-10-26T14:48:32.372Z,19.24
2022-10-26T14:53:41.054Z,19.21
2022-10-26T14:58:44.610Z,19.18
2022-10-26T15:03:52.874Z,19.16
2022-10-26T15:08:58.340Z,19.07
2022-10-26T15:14:01.642Z,18.91
2022-10-26T15:19:10.560Z,18.72
2022-10-26T15:24:38.787Z,18.52
2022-10-26T15:29:44.629Z,18.33
2022-10-26T15:35:05.626Z,18.16
2022-10-26T15:40:09.008Z,17.95
2022-10-26T15:45:20.937Z,17.78
2022-10-26T15:50:27.403Z,17.62
2022-10-26T15:55:30.950Z,17.46
2022-10-26T16:00:34.003Z,17.32
2022-10-26T16:05:37.019Z,17.18
2022-10-26T16:10:40.123Z,17.04
2022-10-26T16:15:43.719Z,16.91
2022-10-26T16:20:46.732Z,16.76
2022-10-26T16:25:49.624Z,16.63
2022-10-26T16:30:59.247Z,16.51
2022-10-26T16:36:03.875Z,16.38
2022-10-26T16:41:12.145Z,16.27
2022-10-26T16:46:19.992Z,16.14
2022-10-26T16:51:28.613Z,16.03
2022-10-26T16:56:31.805Z,15.94
2022-10-26T17:01:36.053Z,15.85
2022-10-26T17:06:39.060Z,15.76
2022-10-26T17:11:42.126Z,15.67
2022-10-26T17:16:45.124Z,15.59
2022-10-26T17:21:48.243Z,15.47
2022-10-26T17:26:51.173Z,15.37
2022-10-26T17:31:54.276Z,15.28
2022-10-26T17:36:57.944Z,15.24
2022-10-26T17:42:00.888Z,15.24
2022-10-26T17:47:04.010Z,15.25
2022-10-26T17:52:07.010Z,15.20
2022-10-26T17:57:09.997Z,15.17
2022-10-26T18:02:12.992Z,15.13
2022-10-26T18:07:16.038Z,15.04
2022-10-26T18:12:18.986Z,14.91
2022-10-26T18:17:21.856Z,14.78
2022-10-26T18:22:25.155Z,14.66
2022-10-26T18:27:28.164Z,14.56
2022-10-26T18:32:31.239Z,14.53
2022-10-26T18:37:34.246Z,14.46
2022-10-26T18:42:37.298Z,14.40
2022-10-26T18:47:41.235Z,14.34
2022-10-26T18:52:45.310Z,14.28
2022-10-26T18:57:48.284Z,14.23
2022-10-26T19:02:52.490Z,14.18
2022-10-26T19:07:55.711Z,14.15
2022-10-26T19:12:58.679Z,14.04
2022-10-26T19:18:03.026Z,13.94
2022-10-26T19:23:06.205Z,13.84
2022-10-26T19:28:09.152Z,13.79
2022-10-26T19:33:12.202Z,13.74
2022-10-26T19:38:15.029Z,13.71
2022-10-26T19:43:17.967Z,13.71
2022-10-26T19:48:21.216Z,13.71
2022-10-26T19:53:24.528Z,13.71
2022-10-26T19:58:30.201Z,13.64
2022-10-26T20:03:34.257Z,13.56
2022-10-26T20:08:37.810Z,13.45
2022-10-26T20:13:40.957Z,13.37
2022-10-26T20:18:47.754Z,13.29
2022-10-26T20:23:52.163Z,13.19
2022-10-26T20:28:55.113Z,13.10
2022-10-26T20:33:58.179Z,13.01
2022-10-26T20:39:01.758Z,12.99
2022-10-26T20:44:05.106Z,13.01
2022-10-26T20:49:09.502Z,13.00
2022-10-26T20:54:19.376Z,13.00
2022-10-26T20:59:26.013Z,13.13
2022-10-26T21:04:28.929Z,13.30
2022-10-26T21:09:34.222Z,13.34
2022-10-26T21:14:41.077Z,13.27
2022-10-26T21:19:44.178Z,13.13
2022-10-26T21:24:47.491Z,12.97
2022-10-26T21:29:50.389Z,12.83
2022-10-26T21:34:55.707Z,12.70
2022-10-26T21:39:58.619Z,12.65
2022-10-26T21:45:01.664Z,12.64
2022-10-26T21:50:05.096Z,12.64
2022-10-26T21:55:08.379Z,12.76
2022-10-26T22:00:11.985Z,12.93
2022-10-26T22:05:16.112Z,12.98
2022-10-26T22:10:18.970Z,12.93
2022-10-26T22:15:22.127Z,12.80
2022-10-26T22:20:25.451Z,12.69
2022-10-26T22:25:28.422Z,12.59
2022-10-26T22:30:32.461Z,12.47
2022-10-26T22:35:35.618Z,12.33
2022-10-26T22:40:39.439Z,12.25
2022-10-26T22:45:42.894Z,12.22
2022-10-26T22:50:47.221Z,12.25
2022-10-26T22:55:51.904Z,12.20
2022-10-26T23:01:14.372Z,12.20
2022-10-26T23:06:20.905Z,12.15
2022-10-26T23:11:27.911Z,12.12
2022-10-26T23:16:32.998Z,12.12
2022-10-26T23:21:37.386Z,12.17
2022-10-26T23:26:40.823Z,12.32
2022-10-26T23:31:44.367Z,12.50
2022-10-26T23:36:48.481Z,12.72
2022-10-26T23:41:53.625Z,12.89
2022-10-26T23:46:56.731Z,13.01
2022-10-26T23:52:00.476Z,13.02
2022-10-26T23:57:04.863Z,12.98
